Terminal Aerodrome Forecast
Issued by NWS Dallas/Fort Worth, TX

Home | Current Version | Previous Version | Text Only | Print | Product List | Glossary On
Versions: 1 2 3 4 5 6 7 8 9 10 11 12 13 14 15 16 17 18 19 20 21 22
000
FTUS44 KFWD 261700
TAFDFW
TAF
KDFW 261738Z 2618/2724 16011KT 6SM BR OVC015
     FM270400 18005KT 4SM BR BKN007 OVC012
     FM270800 32016KT 6SM BR OVC012
     FM271500 33017KT P6SM OVC025
     FM272000 34016KT P6SM -DZ OVC035=

USA.gov is the U.S. government's official web portal to all federal, state and local government web resources and services.